createdAt,value
2018-06-08T00:00:22.987Z,87.30
2018-06-08T00:03:20.787Z,87.30
2018-06-08T00:06:18.687Z,88.20
2018-06-08T00:09:16.537Z,87.70
2018-06-08T00:12:14.519Z,87.20
2018-06-08T00:15:12.433Z,87.20
2018-06-08T00:18:10.225Z,87.50
2018-06-08T00:21:07.919Z,87.80
2018-06-08T00:24:05.807Z,87.70
2018-06-08T00:27:03.663Z,87.60
2018-06-08T00:30:01.395Z,87.00
2018-06-08T00:32:59.399Z,86.90
2018-06-08T00:35:57.119Z,87.50
2018-06-08T00:38:55.023Z,87.70
2018-06-08T00:41:53.867Z,88.10
2018-06-08T00:44:52.640Z,88.30
2018-06-08T00:47:50.563Z,88.30
2018-06-08T00:50:48.354Z,88.10
2018-06-08T00:53:46.218Z,88.50
2018-06-08T00:56:55.731Z,88.50
2018-06-08T00:59:53.827Z,88.60
2018-06-08T01:02:52.649Z,89.10
2018-06-08T01:05:50.352Z,89.40
2018-06-08T01:08:48.321Z,89.80
2018-06-08T01:11:47.039Z,90.00
2018-06-08T01:14:50.705Z,89.70
2018-06-08T01:17:48.436Z,90.00
2018-06-08T01:20:46.356Z,90.00
2018-06-08T01:23:44.372Z,90.00
2018-06-08T01:26:42.093Z,90.20
2018-06-08T01:29:39.597Z,90.30
2018-06-08T01:32:37.499Z,90.30
2018-06-08T01:35:35.694Z,90.30
2018-06-08T01:38:33.997Z,90.30
2018-06-08T01:41:32.093Z,90.40
2018-06-08T01:44:30.312Z,90.60
2018-06-08T01:47:28.105Z,90.50
2018-06-08T01:50:25.853Z,90.50
2018-06-08T01:53:23.762Z,90.50
2018-06-08T01:56:21.670Z,90.70
2018-06-08T01:59:19.703Z,90.80
2018-06-08T02:02:17.272Z,90.80
2018-06-08T02:08:05.290Z,90.70
2018-06-08T02:11:03.094Z,90.80
2018-06-08T02:14:01.165Z,90.90
2018-06-08T02:19:48.887Z,90.90
2018-06-08T02:22:46.413Z,91.00
2018-06-08T02:25:44.281Z,91.00
2018-06-08T02:28:42.032Z,91.20
2018-06-08T02:31:39.697Z,91.00
2018-06-08T02:34:37.520Z,91.10
2018-06-08T02:37:36.603Z,90.90
2018-06-08T02:40:34.411Z,90.80
2018-06-08T02:43:32.347Z,90.80
2018-06-08T02:46:30.486Z,90.90
2018-06-08T02:49:28.508Z,90.90
2018-06-08T02:52:26.803Z,90.80
2018-06-08T02:55:24.844Z,90.80
2018-06-08T02:58:23.730Z,90.70
2018-06-08T03:01:21.761Z,90.80
2018-06-08T03:04:19.501Z,90.80
2018-06-08T03:07:17.708Z,90.80
2018-06-08T03:10:16.027Z,90.50
2018-06-08T03:13:15.184Z,90.90
2018-06-08T03:16:12.994Z,90.50
2018-06-08T03:19:10.750Z,90.30
2018-06-08T03:22:08.522Z,90.10
2018-06-08T03:25:06.354Z,90.10
2018-06-08T03:31:06.807Z,89.20
2018-06-08T03:34:04.462Z,88.60
2018-06-08T03:37:02.396Z,88.70
2018-06-08T03:40:00.052Z,88.50
2018-06-08T03:42:57.807Z,88.10
2018-06-08T03:45:55.887Z,87.80
2018-06-08T03:48:53.743Z,87.20
2018-06-08T03:51:51.315Z,88.20
2018-06-08T03:54:49.374Z,88.20
2018-06-08T03:57:47.277Z,88.30
2018-06-08T04:00:45.271Z,88.80
2018-06-08T04:06:33.908Z,88.90
2018-06-08T04:09:31.650Z,88.50
2018-06-08T04:12:29.691Z,87.90
2018-06-08T04:15:27.492Z,86.90
2018-06-08T04:18:25.440Z,87.30
2018-06-08T04:21:23.219Z,87.30
2018-06-08T04:24:20.383Z,87.30
2018-06-08T04:27:18.166Z,87.20
2018-06-08T04:30:16.259Z,87.10
2018-06-08T04:33:14.264Z,87.30
2018-06-08T04:36:12.079Z,87.30
2018-06-08T04:39:10.032Z,86.20
2018-06-08T04:42:08.032Z,86.10
2018-06-08T04:45:06.905Z,85.20
2018-06-08T04:48:04.893Z,85.10
2018-06-08T04:51:02.738Z,84.50
2018-06-08T04:54:00.504Z,84.50
2018-06-08T04:56:59.617Z,84.00
2018-06-08T04:59:57.578Z,83.20
2018-06-08T05:02:55.432Z,83.10
2018-06-08T05:05:53.318Z,82.30
2018-06-08T05:08:51.609Z,81.50
2018-06-08T05:11:49.120Z,80.60
2018-06-08T05:14:46.963Z,78.60
2018-06-08T05:17:44.931Z,78.10
2018-06-08T05:20:43.039Z,78.10
2018-06-08T05:23:41.619Z,78.00
2018-06-08T05:26:39.454Z,77.90
2018-06-08T05:29:37.379Z,77.60
2018-06-08T05:32:36.250Z,77.00
2018-06-08T05:35:35.449Z,76.00
2018-06-08T05:38:33.580Z,74.30
2018-06-08T05:41:31.461Z,73.40
2018-06-08T05:44:29.589Z,72.70
2018-06-08T05:47:27.451Z,72.90
2018-06-08T05:50:25.104Z,72.10
2018-06-08T05:53:23.070Z,71.70
2018-06-08T05:56:20.772Z,70.80
2018-06-08T05:59:18.424Z,69.90
2018-06-08T06:02:16.687Z,69.70
2018-06-08T06:05:14.307Z,69.20
2018-06-08T06:08:12.009Z,69.00
2018-06-08T06:11:10.100Z,68.90
2018-06-08T06:14:09.142Z,68.90
2018-06-08T06:17:07.073Z,70.00
2018-06-08T06:20:04.836Z,69.00
2018-06-08T06:23:05.461Z,68.10
2018-06-08T06:26:03.308Z,68.20
2018-06-08T06:29:01.148Z,66.40
2018-06-08T06:31:59.011Z,66.40
2018-06-08T06:34:56.850Z,63.40
2018-06-08T06:37:54.312Z,63.40
2018-06-08T06:40:52.314Z,63.10
2018-06-08T06:43:50.149Z,61.50
2018-06-08T06:46:47.911Z,61.30
2018-06-08T06:49:45.783Z,59.90
2018-06-08T06:52:43.581Z,60.00
2018-06-08T06:55:41.354Z,60.00
2018-06-08T06:58:38.937Z,59.00
2018-06-08T07:01:36.905Z,55.90
2018-06-08T07:04:34.582Z,53.10
2018-06-08T07:07:32.412Z,52.50
2018-06-08T07:10:30.112Z,51.60
2018-06-08T07:13:28.320Z,50.80
2018-06-08T07:19:16.343Z,48.10
2018-06-08T07:22:14.333Z,45.70
2018-06-08T07:25:12.329Z,44.20
2018-06-08T07:28:10.375Z,43.40
2018-06-08T07:31:08.083Z,43.10
2018-06-08T07:34:05.961Z,44.00
2018-06-08T07:37:03.723Z,43.00
2018-06-08T07:40:01.516Z,42.60
2018-06-08T07:43:00.044Z,41.40
2018-06-08T07:45:57.817Z,40.10
2018-06-08T07:48:55.651Z,38.60
2018-06-08T07:51:53.334Z,39.10
2018-06-08T07:54:51.305Z,39.10
2018-06-08T07:57:48.438Z,39.30
2018-06-08T08:00:46.384Z,37.90
2018-06-08T08:03:44.527Z,37.00
2018-06-08T08:06:42.259Z,38.10
2018-06-08T08:09:40.380Z,39.30
2018-06-08T08:12:38.307Z,39.70
2018-06-08T08:15:36.290Z,39.00
2018-06-08T08:18:34.141Z,37.90
2018-06-08T08:21:32.138Z,39.10
2018-06-08T08:24:30.117Z,38.40
2018-06-08T08:27:28.147Z,36.70
2018-06-08T08:30:27.157Z,37.20
2018-06-08T08:33:25.246Z,38.40
2018-06-08T08:36:23.146Z,38.30
2018-06-08T08:39:22.352Z,36.80
2018-06-08T08:42:21.283Z,38.10
2018-06-08T08:45:18.908Z,38.50
2018-06-08T08:48:16.867Z,38.00
2018-06-08T08:51:14.679Z,38.10
2018-06-08T08:54:12.531Z,39.10
2018-06-08T08:57:10.368Z,38.70
2018-06-08T09:02:57.656Z,39.20
2018-06-08T09:05:55.637Z,37.60
2018-06-08T09:08:53.292Z,37.40
2018-06-08T09:11:52.206Z,35.80
2018-06-08T09:14:50.322Z,36.20
2018-06-08T09:17:48.534Z,37.10
2018-06-08T09:20:46.323Z,38.70
2018-06-08T09:23:44.248Z,39.30
2018-06-08T09:26:42.231Z,38.10
2018-06-08T09:29:40.106Z,39.30
2018-06-08T09:32:40.955Z,39.30
2018-06-08T09:35:39.161Z,38.30
2018-06-08T09:38:37.129Z,38.40
2018-06-08T09:41:35.125Z,39.40
2018-06-08T09:44:33.660Z,38.70
2018-06-08T09:47:31.781Z,37.20
2018-06-08T09:50:30.148Z,37.20
2018-06-08T09:53:27.971Z,37.60
2018-06-08T09:59:16.073Z,38.10
2018-06-08T10:02:13.991Z,36.60
2018-06-08T10:05:11.396Z,35.20
2018-06-08T10:08:09.370Z,34.30
2018-06-08T10:11:07.468Z,34.70
2018-06-08T10:14:05.429Z,34.70
2018-06-08T10:17:03.374Z,34.20
2018-06-08T10:20:02.242Z,35.90
2018-06-08T10:23:00.566Z,37.90
2018-06-08T10:25:58.391Z,37.00
2018-06-08T10:28:56.887Z,36.70
2018-06-08T10:31:54.365Z,35.20
2018-06-08T10:34:52.351Z,35.40
2018-06-08T10:37:50.325Z,35.70
2018-06-08T10:40:48.282Z,35.30
2018-06-08T10:43:46.011Z,34.80
2018-06-08T10:46:44.045Z,34.20
2018-06-08T10:49:42.013Z,34.50
2018-06-08T10:52:40.145Z,35.40
2018-06-08T10:55:37.498Z,36.50
2018-06-08T10:58:35.426Z,36.40
2018-06-08T11:01:33.179Z,34.90
2018-06-08T11:04:31.061Z,36.60
2018-06-08T11:07:29.046Z,36.20
2018-06-08T11:10:27.128Z,35.80
2018-06-08T11:13:25.065Z,35.80
2018-06-08T11:16:23.136Z,37.80
2018-06-08T11:19:21.010Z,38.60
2018-06-08T11:22:18.724Z,38.90
2018-06-08T11:25:16.728Z,38.20
2018-06-08T11:28:14.357Z,37.40
2018-06-08T11:31:12.196Z,35.90
2018-06-08T11:34:10.243Z,35.00
2018-06-08T11:37:10.046Z,35.20
2018-06-08T11:40:08.105Z,34.80
2018-06-08T11:43:07.103Z,37.90
2018-06-08T11:46:05.082Z,37.80
2018-06-08T11:49:03.097Z,37.40
2018-06-08T11:52:01.104Z,38.60
2018-06-08T11:54:59.844Z,38.70
2018-06-08T11:57:57.776Z,37.90
2018-06-08T12:00:55.576Z,38.30
2018-06-08T12:03:53.498Z,37.10
2018-06-08T12:06:51.343Z,35.80
2018-06-08T12:09:51.255Z,35.20
2018-06-08T12:12:49.290Z,34.60
2018-06-08T12:18:52.023Z,34.20
2018-06-08T12:21:49.661Z,33.10
2018-06-08T12:24:47.600Z,32.90
2018-06-08T12:27:45.653Z,32.70
2018-06-08T12:30:43.475Z,32.90
2018-06-08T12:33:41.647Z,33.00
2018-06-08T12:36:39.429Z,34.70
2018-06-08T12:39:37.301Z,34.00
2018-06-08T12:42:34.901Z,37.10
2018-06-08T12:45:32.858Z,39.50
2018-06-08T12:48:30.515Z,41.10
2018-06-08T12:51:28.383Z,40.60
2018-06-08T12:54:26.062Z,40.30
2018-06-08T12:57:24.799Z,40.40
2018-06-08T13:00:23.661Z,41.40
2018-06-08T13:03:21.759Z,41.70
2018-06-08T13:06:20.823Z,41.40
2018-06-08T13:09:21.954Z,42.20
2018-06-08T13:12:20.818Z,42.80
2018-06-08T13:15:18.597Z,43.40
2018-06-08T13:18:16.376Z,43.70
2018-06-08T13:21:14.283Z,44.10
2018-06-08T13:24:12.249Z,43.10
2018-06-08T13:27:10.085Z,42.90
2018-06-08T13:30:07.847Z,43.40
2018-06-08T13:33:05.664Z,43.40
2018-06-08T13:36:03.833Z,43.30
2018-06-08T13:39:01.684Z,44.30
2018-06-08T13:41:59.542Z,45.20
2018-06-08T13:44:59.387Z,45.20
2018-06-08T13:47:57.031Z,44.70
2018-06-08T13:50:54.669Z,44.70
2018-06-08T13:53:52.838Z,44.90
2018-06-08T13:56:50.753Z,46.20
2018-06-08T13:59:48.647Z,46.20
2018-06-08T14:02:46.769Z,46.20
2018-06-08T14:05:46.160Z,45.80
2018-06-08T14:08:44.647Z,45.50
2018-06-08T14:11:43.492Z,44.80
2018-06-08T14:14:43.776Z,44.80
2018-06-08T14:17:44.072Z,45.50
2018-06-08T14:20:42.673Z,46.10
2018-06-08T14:23:41.579Z,45.80
2018-06-08T14:26:40.508Z,45.40
2018-06-08T14:29:38.672Z,45.90
2018-06-08T14:32:36.709Z,46.00
2018-06-08T14:35:34.614Z,46.20
2018-06-08T14:38:32.310Z,46.90
2018-06-08T14:41:30.119Z,46.50
2018-06-08T14:44:28.322Z,47.70
2018-06-08T14:47:26.076Z,47.30
2018-06-08T14:50:24.014Z,46.90
2018-06-08T14:53:23.023Z,46.30
2018-06-08T14:59:10.804Z,47.40
2018-06-08T15:02:08.075Z,47.70
2018-06-08T15:05:07.240Z,47.80
2018-06-08T15:08:04.373Z,47.70
2018-06-08T15:11:02.536Z,47.90
2018-06-08T15:14:00.162Z,48.90
2018-06-08T15:16:58.064Z,48.70
2018-06-08T15:22:45.935Z,49.80
2018-06-08T15:25:43.725Z,49.60
2018-06-08T15:28:41.463Z,49.10
2018-06-08T15:31:39.228Z,50.30
2018-06-08T15:34:37.168Z,50.00
2018-06-08T15:37:34.854Z,50.70
2018-06-08T15:40:32.711Z,50.70
2018-06-08T15:43:30.738Z,50.20
2018-06-08T15:46:29.587Z,50.10
2018-06-08T15:49:27.488Z,50.00
2018-06-08T15:52:25.441Z,50.90
2018-06-08T15:55:23.253Z,51.70
2018-06-08T15:58:21.197Z,51.50
2018-06-08T16:01:19.067Z,51.50
2018-06-08T16:04:18.095Z,51.20
2018-06-08T16:10:06.148Z,51.80
2018-06-08T16:13:03.880Z,51.80
2018-06-08T16:16:01.694Z,51.20
2018-06-08T16:18:59.607Z,51.50
2018-06-08T16:21:57.439Z,51.50
2018-06-08T16:27:44.639Z,51.20
2018-06-08T16:30:42.625Z,51.50
2018-06-08T16:33:40.655Z,51.60
2018-06-08T16:36:39.278Z,51.60
2018-06-08T16:39:38.430Z,51.20
2018-06-08T16:42:36.574Z,51.20
2018-06-08T16:45:34.448Z,51.80
2018-06-08T16:48:32.618Z,52.20
2018-06-08T16:51:30.438Z,52.00
2018-06-08T16:54:28.000Z,52.30
2018-06-08T16:57:26.027Z,51.90
2018-06-08T17:00:24.012Z,51.30
2018-06-08T17:03:21.740Z,51.90
2018-06-08T17:06:19.666Z,52.20
2018-06-08T17:09:17.643Z,52.50
2018-06-08T17:12:15.318Z,52.50
2018-06-08T17:15:13.482Z,52.60
2018-06-08T17:18:11.353Z,53.60
2018-06-08T17:21:09.177Z,53.90
2018-06-08T17:24:06.977Z,53.90
2018-06-08T17:29:55.867Z,54.90
2018-06-08T17:32:54.014Z,55.40
2018-06-08T17:35:52.061Z,56.00
2018-06-08T17:38:50.205Z,56.20
2018-06-08T17:41:48.448Z,55.80
2018-06-08T17:44:46.276Z,55.40
2018-06-08T17:47:43.620Z,55.30
2018-06-08T17:50:41.535Z,55.60
2018-06-08T17:53:39.505Z,55.60
2018-06-08T17:56:37.292Z,55.60
2018-06-08T17:59:35.394Z,55.50
2018-06-08T18:02:33.127Z,55.90
2018-06-08T18:05:31.178Z,56.10
2018-06-08T18:08:29.247Z,56.20
2018-06-08T18:11:28.079Z,57.00
2018-06-08T18:14:25.842Z,57.10
2018-06-08T18:17:23.726Z,57.60
2018-06-08T18:20:21.392Z,57.90
2018-06-08T18:23:20.449Z,58.20
2018-06-08T18:26:18.148Z,58.70
2018-06-08T18:29:17.065Z,58.50
2018-06-08T18:32:14.942Z,57.90
2018-06-08T18:35:13.042Z,57.30
2018-06-08T18:38:12.255Z,57.60
2018-06-08T18:41:09.723Z,57.80
2018-06-08T18:44:16.149Z,57.70
2018-06-08T18:47:16.277Z,57.70
2018-06-08T18:58:51.406Z,59.80
2018-06-08T19:01:51.317Z,60.40
2018-06-08T19:04:51.081Z,60.50
2018-06-08T19:07:50.972Z,61.00
2018-06-08T19:10:48.673Z,61.50
2018-06-08T19:13:46.589Z,62.20
2018-06-08T19:16:44.424Z,62.90
2018-06-08T19:19:42.711Z,63.80
2018-06-08T19:22:41.406Z,64.20
2018-06-08T19:25:39.254Z,63.90
2018-06-08T19:28:37.063Z,64.30
2018-06-08T19:31:35.329Z,64.90
2018-06-08T19:34:32.590Z,65.70
2018-06-08T19:37:30.694Z,66.50
2018-06-08T19:40:28.534Z,67.30
2018-06-08T19:43:26.519Z,68.20
2018-06-08T19:46:24.471Z,69.00
2018-06-08T19:49:23.389Z,69.30
2018-06-08T19:52:22.303Z,70.00
2018-06-08T19:55:20.553Z,70.60
2018-06-08T19:58:18.658Z,70.90
2018-06-08T20:01:16.667Z,71.70
2018-06-08T20:04:14.590Z,72.20
2018-06-08T20:07:12.299Z,73.00
2018-06-08T20:12:59.725Z,75.70
2018-06-08T20:15:57.670Z,76.20
2018-06-08T20:18:55.781Z,77.10
2018-06-08T20:21:53.529Z,78.20
2018-06-08T20:24:51.377Z,79.80
2018-06-08T20:27:49.297Z,81.30
2018-06-08T20:30:56.013Z,82.20
2018-06-08T20:33:54.007Z,83.10
2018-06-08T20:36:51.727Z,84.20
2018-06-08T20:39:49.699Z,84.60
2018-06-08T20:42:47.557Z,85.30
2018-06-08T20:45:45.425Z,85.40
2018-06-08T20:48:43.178Z,85.50
2018-06-08T20:51:41.184Z,85.80
2018-06-08T20:54:38.748Z,86.60
2018-06-08T20:57:42.743Z,87.60
2018-06-08T21:00:40.451Z,87.70
2018-06-08T21:03:38.127Z,88.40
2018-06-08T21:06:36.032Z,89.30
2018-06-08T21:09:34.145Z,89.50
2018-06-08T21:12:32.124Z,89.40
2018-06-08T21:15:29.811Z,89.80
2018-06-08T21:18:28.785Z,90.20
2018-06-08T21:21:26.828Z,90.70
2018-06-08T21:24:24.632Z,90.90
2018-06-08T21:27:22.636Z,91.10
2018-06-08T21:33:10.570Z,91.90
2018-06-08T21:36:08.568Z,92.00
2018-06-08T21:39:06.330Z,92.20
2018-06-08T21:42:03.823Z,92.50
2018-06-08T21:45:01.648Z,92.60
2018-06-08T21:47:59.394Z,92.90
2018-06-08T21:50:57.104Z,93.30
2018-06-08T21:53:54.992Z,93.40
2018-06-08T21:56:52.892Z,93.70
2018-06-08T21:59:50.884Z,93.80
2018-06-08T22:02:48.694Z,93.90
2018-06-08T22:05:47.695Z,94.10
2018-06-08T22:08:45.868Z,94.30
2018-06-08T22:11:43.668Z,94.50
2018-06-08T22:14:41.383Z,94.70
2018-06-08T22:17:39.433Z,94.80
2018-06-08T22:20:37.172Z,94.90
2018-06-08T22:23:35.051Z,95.00
2018-06-08T22:26:32.969Z,95.00
2018-06-08T22:32:20.649Z,95.40
2018-06-08T22:35:18.464Z,95.50
2018-06-08T22:38:16.251Z,95.50
2018-06-08T22:41:14.288Z,95.70
2018-06-08T22:44:12.101Z,95.80
2018-06-08T22:47:09.945Z,96.00
2018-06-08T22:50:08.043Z,96.20
2018-06-08T22:53:05.816Z,96.40
2018-06-08T22:56:03.493Z,96.50
2018-06-08T22:59:01.489Z,96.70
2018-06-08T23:01:59.618Z,96.80
2018-06-08T23:05:04.691Z,96.90
2018-06-08T23:08:02.636Z,96.90
2018-06-08T23:11:00.567Z,96.90
2018-06-08T23:13:58.635Z,97.10
2018-06-08T23:16:56.647Z,97.30
2018-06-08T23:19:54.340Z,97.50
2018-06-08T23:22:52.408Z,97.70
2018-06-08T23:25:50.220Z,97.70
2018-06-08T23:28:48.044Z,97.70
2018-06-08T23:31:45.939Z,97.70
2018-06-08T23:34:43.647Z,97.60
2018-06-08T23:37:41.404Z,97.80
2018-06-08T23:40:39.335Z,97.70
2018-06-08T23:43:36.991Z,97.60
2018-06-08T23:46:34.622Z,97.70
2018-06-08T23:49:32.570Z,97.80
2018-06-08T23:52:30.448Z,97.90
2018-06-08T23:55:28.057Z,98.10
2018-06-08T23:58:26.103Z,98.20
